!!! Benutzen Sie für Ihre Flugvorbereitung die offiziellen Quellen !!!

Metar:

EDQM 150820Z 18004KT 150V210 0350 R26/0650N FG VV/// 02/01 Q1028

QNH: 1028
Temperatur: 26
Dew Point : 6

 

METAR (decoded)